Time;durP1;ratioP1;P1;durP2;ratioP2;P2;SDS_P1;SDS_P2;PMS_P1;PMS_P2;Temp;Humidity;BMP_temperature;BMP_pressure;BME280_temperature;BME280_humidity;BME280_pressure;Samples;Min_cycle;Max_cycle;Signal;HPM_P1;HPM_P2
2022/06/04 00:00:49;;;;;;;19.95;17.95;;;;;;;;;;5013184;28;20054;-66
2022/06/04 00:03:18;;;;;;;19.23;17.20;;;;;;;;;;5013440;28;20398;-66
2022/06/04 00:05:49;;;;;;;18.50;16.48;;;;;;;;;;5013326;28;20070;-66
2022/06/04 00:08:17;;;;;;;16.75;15.02;;;;;;;;;;5013365;28;20591;-67
2022/06/04 00:16:18;;;;;;;19.60;16.10;;;;;;;;;;5033061;28;20049;-67
2022/06/04 00:18:45;;;;;;;17.13;14.95;;;;;;;;;;5033114;28;20096;-67
2022/06/04 00:21:18;;;;;;;16.27;14.60;;;;;;;;;;5032849;28;20057;-67
2022/06/04 00:23:44;;;;;;;20.58;15.68;;;;;;;;;;5032661;28;20049;-67
2022/06/04 00:26:13;;;;;;;19.88;14.60;;;;;;;;;;5029915;28;20042;-67
2022/06/04 00:28:40;;;;;;;16.40;14.65;;;;;;;;;;5031147;28;20187;-66
2022/06/04 00:31:15;;;;;;;18.58;15.07;;;;;;;;;;5067564;28;20375;-65
2022/06/04 00:33:42;;;;;;;16.08;14.43;;;;;;;;;;5068087;28;20344;-65
2022/06/04 00:36:08;;;;;;;18.10;14.45;;;;;;;;;;5069155;28;20052;-65
2022/06/04 00:38:35;;;;;;;17.90;16.02;;;;;;;;;;5069151;28;20049;-64
2022/06/04 00:41:29;;;;;;;17.55;15.60;;;;;;;;;;5068940;28;20549;-64
2022/06/04 00:44:01;;;;;;;16.05;14.18;;;;;;;;;;5067864;28;20079;-64
2022/06/04 00:46:39;;;;;;;15.43;13.75;;;;;;;;;;5069086;28;20122;-64
2022/06/04 00:49:18;;;;;;;17.35;14.70;;;;;;;;;;5068865;28;20102;-64
2022/06/04 00:51:47;;;;;;;16.38;14.68;;;;;;;;;;5068656;28;20049;-65
2022/06/04 00:54:13;;;;;;;16.20;14.32;;;;;;;;;;5051015;28;20515;-64
2022/06/04 00:56:55;;;;;;;15.93;14.40;;;;;;;;;;5051210;28;20196;-64
2022/06/04 00:59:41;;;;;;;17.75;14.80;;;;;;;;;;5067810;28;20049;-65
2022/06/04 01:02:48;;;;;;;17.30;14.63;;;;;;;;;;5068517;28;20075;-64
2022/06/04 01:05:27;;;;;;;15.07;13.48;;;;;;;;;;5067435;28;20500;-65
2022/06/04 01:08:16;;;;;;;17.20;14.82;;;;;;;;;;5068607;28;20098;-65
2022/06/04 01:11:09;;;;;;;18.13;14.57;;;;;;;;;;5067409;28;20281;-65
2022/06/04 01:13:38;;;;;;;16.58;14.60;;;;;;;;;;5067262;28;20083;-65
2022/06/04 01:16:37;;;;;;;15.68;14.15;;;;;;;;;;5068489;28;20102;-65
2022/06/04 01:19:19;;;;;;;17.35;14.15;;;;;;;;;;5052047;28;20088;-65
2022/06/04 01:21:52;;;;;;;17.87;13.87;;;;;;;;;;5067084;28;20056;-65
2022/06/04 01:24:40;;;;;;;15.70;13.95;;;;;;;;;;5068112;28;20094;-66
2022/06/04 01:27:12;;;;;;;16.33;14.73;;;;;;;;;;5068035;28;20589;-65
2022/06/04 01:29:50;;;;;;;16.98;15.25;;;;;;;;;;5066857;28;20049;-65
2022/06/04 01:32:22;;;;;;;16.52;14.82;;;;;;;;;;5050822;28;20095;-65
2022/06/04 01:35:12;;;;;;;16.83;14.43;;;;;;;;;;5048084;28;20114;-66
2022/06/04 01:37:49;;;;;;;16.95;15.25;;;;;;;;;;5049479;28;20056;-66
2022/06/04 01:43:07;;;;;;;17.83;15.90;;;;;;;;;;5019931;28;20058;-65
2022/06/04 01:45:34;;;;;;;19.10;14.65;;;;;;;;;;5017084;28;20099;-65
2022/06/04 01:48:01;;;;;;;17.80;14.80;;;;;;;;;;5036698;28;20103;-65
2022/06/04 01:50:34;;;;;;;17.25;14.43;;;;;;;;;;5053247;28;20049;-65
2022/06/04 01:53:01;;;;;;;16.58;13.82;;;;;;;;;;5036505;28;20056;-65
2022/06/04 01:55:36;;;;;;;14.70;13.05;;;;;;;;;;5036735;28;20045;-65
2022/06/04 01:58:05;;;;;;;15.02;12.02;;;;;;;;;;5035387;28;20048;-65
2022/06/04 02:00:38;;;;;;;16.80;12.13;;;;;;;;;;5033036;28;20562;-65
2022/06/04 02:03:13;;;;;;;14.02;12.35;;;;;;;;;;5033288;28;20049;-65
2022/06/04 02:05:54;;;;;;;16.77;12.55;;;;;;;;;;5039076;28;20045;-65
2022/06/04 02:08:24;;;;;;;13.95;12.48;;;;;;;;;;5035606;28;20049;-65
2022/06/04 02:11:00;;;;;;;14.23;12.43;;;;;;;;;;5019028;28;20488;-65
2022/06/04 02:13:27;;;;;;;18.52;12.23;;;;;;;;;;5034983;28;20050;-65
2022/06/04 02:15:58;;;;;;;13.15;11.70;;;;;;;;;;5036209;28;20104;-65
2022/06/04 02:18:25;;;;;;;12.82;11.48;;;;;;;;;;5034695;28;20045;-65
2022/06/04 02:20:52;;;;;;;20.27;13.02;;;;;;;;;;5033891;28;20049;-65
2022/06/04 02:23:19;;;;;;;13.15;11.85;;;;;;;;;;5033773;28;20637;-65
2022/06/04 02:25:46;;;;;;;16.80;13.13;;;;;;;;;;5032934;28;20111;-65
2022/06/04 02:28:12;;;;;;;12.88;11.48;;;;;;;;;;5033942;28;20050;-65
2022/06/04 02:31:09;;;;;;;14.68;12.27;;;;;;;;;;5036387;28;20041;-65
2022/06/04 02:34:05;;;;;;;13.85;12.45;;;;;;;;;;5053189;28;20053;-65
2022/06/04 02:36:41;;;;;;;15.18;11.52;;;;;;;;;;5052076;28;20053;-65
2022/06/04 02:39:17;;;;;;;12.68;11.35;;;;;;;;;;5053762;28;20049;-65
2022/06/04 02:42:05;;;;;;;14.45;11.55;;;;;;;;;;5053710;28;20052;-65
2022/06/04 02:44:33;;;;;;;12.30;10.82;;;;;;;;;;5052532;28;20049;-65
2022/06/04 02:47:14;;;;;;;12.25;11.05;;;;;;;;;;5036267;28;20058;-65
2022/06/04 02:49:57;;;;;;;12.55;11.25;;;;;;;;;;5052603;28;20045;-65
2022/06/04 02:52:24;;;;;;;20.42;13.80;;;;;;;;;;5046018;28;20053;-65
2022/06/04 02:55:10;;;;;;;19.00;12.85;;;;;;;;;;5031738;28;20054;-65
2022/06/04 02:57:39;;;;;;;21.35;13.93;;;;;;;;;;5032560;28;20057;-65
2022/06/04 03:00:08;;;;;;;13.80;12.45;;;;;;;;;;5034582;28;20049;-64
2022/06/04 03:02:35;;;;;;;14.93;12.82;;;;;;;;;;5034202;28;20496;-64
2022/06/04 03:05:13;;;;;;;15.27;13.20;;;;;;;;;;5035448;28;20132;-64
2022/06/04 03:07:43;;;;;;;16.20;12.90;;;;;;;;;;5036281;28;20111;-64
2022/06/04 03:10:22;;;;;;;12.13;10.82;;;;;;;;;;5036091;28;20045;-64
2022/06/04 03:12:49;;;;;;;17.35;12.48;;;;;;;;;;5035473;28;20046;-64
2022/06/04 03:15:15;;;;;;;17.33;12.68;;;;;;;;;;5036434;28;20045;-64
2022/06/04 03:17:44;;;;;;;14.93;13.10;;;;;;;;;;5036999;28;20617;-64
2022/06/04 03:20:16;;;;;;;13.60;11.95;;;;;;;;;;5036256;28;20052;-64
2022/06/04 03:22:42;;;;;;;15.57;12.73;;;;;;;;;;5038201;28;20081;-64
2022/06/04 03:25:09;;;;;;;15.23;12.43;;;;;;;;;;5034899;28;20060;-65
2022/06/04 03:27:36;;;;;;;15.07;11.80;;;;;;;;;;5037029;28;20098;-64
2022/06/04 03:30:03;;;;;;;14.80;11.70;;;;;;;;;;5052382;28;20045;-64
2022/06/04 03:32:30;;;;;;;15.68;11.55;;;;;;;;;;5052698;28;20130;-64
2022/06/04 03:34:56;;;;;;;13.57;12.07;;;;;;;;;;5052507;28;20052;-64
2022/06/04 03:37:23;;;;;;;13.27;11.88;;;;;;;;;;5052914;28;20045;-64
2022/06/04 03:39:50;;;;;;;13.55;12.13;;;;;;;;;;5045911;28;20053;-64
2022/06/04 03:42:16;;;;;;;16.63;12.15;;;;;;;;;;5032132;28;20049;-64
2022/06/04 03:44:47;;;;;;;12.02;10.82;;;;;;;;;;5032474;28;20045;-64
2022/06/04 03:47:16;;;;;;;13.50;11.65;;;;;;;;;;5032766;28;20057;-64
2022/06/04 03:49:43;;;;;;;14.27;12.57;;;;;;;;;;5032463;28;20053;-64
2022/06/04 03:52:11;;;;;;;13.95;12.45;;;;;;;;;;5043340;28;20044;-64
2022/06/04 03:54:52;;;;;;;13.35;11.95;;;;;;;;;;5052395;28;20508;-64
2022/06/04 03:57:41;;;;;;;12.68;11.38;;;;;;;;;;5052569;28;20799;-64
2022/06/04 04:00:10;;;;;;;16.10;12.05;;;;;;;;;;5055654;28;20048;-65
2022/06/04 04:02:37;;;;;;;14.45;11.88;;;;;;;;;;5053731;28;20049;-65
2022/06/04 04:05:05;;;;;;;12.77;11.23;;;;;;;;;;5048897;28;20056;-65
2022/06/04 04:07:32;;;;;;;13.32;11.77;;;;;;;;;;5053091;28;20447;-65
2022/06/04 04:09:58;;;;;;;13.15;11.75;;;;;;;;;;5043745;28;20045;-65
2022/06/04 04:12:25;;;;;;;12.85;11.18;;;;;;;;;;5033155;28;20103;-65
2022/06/04 04:14:52;;;;;;;13.32;11.02;;;;;;;;;;5033632;28;20076;-65
2022/06/04 04:17:18;;;;;;;11.68;10.52;;;;;;;;;;5033075;28;20049;-65
2022/06/04 04:19:45;;;;;;;12.40;11.20;;;;;;;;;;5033275;28;20053;-65
2022/06/04 04:22:12;;;;;;;13.00;10.82;;;;;;;;;;5042944;28;20060;-65
2022/06/04 04:24:38;;;;;;;12.23;11.02;;;;;;;;;;5051992;28;20075;-65
2022/06/04 04:27:05;;;;;;;14.15;10.98;;;;;;;;;;5052866;28;20045;-66
2022/06/04 04:29:31;;;;;;;12.68;10.27;;;;;;;;;;5070660;28;20057;-69
2022/06/04 04:31:58;;;;;;;10.85;9.73;;;;;;;;;;5075922;28;20041;-69
2022/06/04 04:34:25;;;;;;;11.93;10.52;;;;;;;;;;5073276;28;20514;-69
2022/06/04 04:36:52;;;;;;;11.43;10.23;;;;;;;;;;5072683;28;20056;-68
2022/06/04 04:39:22;;;;;;;11.18;10.07;;;;;;;;;;5072710;28;20098;-68
2022/06/04 04:41:51;;;;;;;11.70;10.50;;;;;;;;;;5072296;28;20045;-69
2022/06/04 04:44:17;;;;;;;11.90;10.70;;;;;;;;;;5072276;28;20283;-69
2022/06/04 04:46:44;;;;;;;11.50;10.30;;;;;;;;;;5072412;28;20049;-68
2022/06/04 04:49:11;;;;;;;11.95;10.73;;;;;;;;;;5072099;28;20054;-69
2022/06/04 04:51:38;;;;;;;13.10;11.00;;;;;;;;;;5071943;28;20048;-69
2022/06/04 04:54:05;;;;;;;14.60;10.60;;;;;;;;;;5061050;28;20055;-69
2022/06/04 04:56:32;;;;;;;13.10;11.70;;;;;;;;;;5052040;28;20562;-69
2022/06/04 04:58:59;;;;;;;16.70;11.27;;;;;;;;;;5051484;28;20052;-68
2022/06/04 05:01:27;;;;;;;11.63;10.43;;;;;;;;;;5051371;28;20045;-68
2022/06/04 05:03:54;;;;;;;11.35;10.27;;;;;;;;;;5045467;28;20514;-68
2022/06/04 05:06:28;;;;;;;11.18;10.07;;;;;;;;;;5051523;28;20059;-68
2022/06/04 05:08:54;;;;;;;12.15;10.93;;;;;;;;;;5051504;28;20057;-68
2022/06/04 05:11:24;;;;;;;10.23;9.23;;;;;;;;;;5032563;28;20099;-66
2022/06/04 05:13:50;;;;;;;9.90;8.85;;;;;;;;;;5038406;28;20442;-67
2022/06/04 05:16:22;;;;;;;9.95;9.05;;;;;;;;;;5038722;28;20053;-67
2022/06/04 05:18:49;;;;;;;8.82;8.02;;;;;;;;;;5035129;28;20053;-67
2022/06/04 05:21:25;;;;;;;9.10;8.20;;;;;;;;;;5036437;28;20432;-67
2022/06/04 05:23:55;;;;;;;12.93;7.68;;;;;;;;;;5034820;28;20557;-66
2022/06/04 05:26:23;;;;;;;10.63;8.50;;;;;;;;;;5041634;28;20060;-66
2022/06/04 05:28:50;;;;;;;9.90;7.65;;;;;;;;;;5043172;28;20041;-66
2022/06/04 05:31:18;;;;;;;7.93;7.20;;;;;;;;;;5044181;28;20485;-67
2022/06/04 05:33:45;;;;;;;7.88;7.00;;;;;;;;;;5047338;28;20069;-67
2022/06/04 05:36:12;;;;;;;8.73;7.78;;;;;;;;;;5034936;28;20428;-67
2022/06/04 05:38:40;;;;;;;7.80;7.00;;;;;;;;;;5034702;28;20180;-67
2022/06/04 05:41:09;;;;;;;8.77;7.65;;;;;;;;;;5034640;28;20045;-67
2022/06/04 05:43:38;;;;;;;7.53;6.80;;;;;;;;;;5034462;28;20556;-67
2022/06/04 05:46:08;;;;;;;7.82;6.82;;;;;;;;;;5034750;28;20429;-66
2022/06/04 05:48:43;;;;;;;8.38;6.63;;;;;;;;;;5035051;28;20128;-66
2022/06/04 05:51:12;;;;;;;10.02;6.93;;;;;;;;;;5035121;28;20041;-66
2022/06/04 05:53:39;;;;;;;10.25;6.80;;;;;;;;;;5034399;28;20050;-66
2022/06/04 05:56:12;;;;;;;7.80;7.10;;;;;;;;;;5034553;28;20053;-66
2022/06/04 05:58:39;;;;;;;8.35;7.05;;;;;;;;;;5034653;28;20107;-66
2022/06/04 06:01:06;;;;;;;9.38;7.28;;;;;;;;;;5016873;28;20046;-66
2022/06/04 06:03:33;;;;;;;8.15;7.35;;;;;;;;;;5035733;28;20592;-65
2022/06/04 06:06:01;;;;;;;8.35;7.35;;;;;;;;;;5034280;28;20566;-65
2022/06/04 06:08:48;;;;;;;8.07;7.00;;;;;;;;;;5034463;28;20053;-65
2022/06/04 06:11:16;;;;;;;10.30;7.13;;;;;;;;;;5031184;28;20046;-65
2022/06/04 06:13:44;;;;;;;8.15;7.30;;;;;;;;;;5049900;28;20052;-64
2022/06/04 06:16:15;;;;;;;9.02;8.13;;;;;;;;;;5051468;28;20083;-65
2022/06/04 06:18:41;;;;;;;8.82;7.93;;;;;;;;;;5051937;28;20507;-65
2022/06/04 06:21:18;;;;;;;17.40;9.30;;;;;;;;;;5036243;28;20060;-65
2022/06/04 06:23:45;;;;;;;20.10;9.63;;;;;;;;;;5051598;28;20045;-65
2022/06/04 06:26:13;;;;;;;11.88;8.65;;;;;;;;;;5052025;28;20052;-65
2022/06/04 06:28:41;;;;;;;10.20;8.65;;;;;;;;;;5051370;28;20450;-65
2022/06/04 06:31:09;;;;;;;10.60;8.98;;;;;;;;;;5051348;28;20049;-65
2022/06/04 06:33:36;;;;;;;13.35;9.93;;;;;;;;;;5039721;28;20053;-65
2022/06/04 06:36:05;;;;;;;13.05;10.98;;;;;;;;;;5031547;28;20054;-65
2022/06/04 06:38:32;;;;;;;17.73;9.88;;;;;;;;;;5032163;28;20424;-65
2022/06/04 06:40:59;;;;;;;15.70;12.23;;;;;;;;;;5031673;28;20053;-66
2022/06/04 06:43:34;;;;;;;15.10;11.68;;;;;;;;;;5031601;28;20569;-65
2022/06/04 06:46:06;;;;;;;17.35;12.70;;;;;;;;;;5040968;28;20055;-65
2022/06/04 06:48:34;;;;;;;12.90;11.13;;;;;;;;;;5031451;28;20132;-65
2022/06/04 06:51:25;;;;;;;12.80;10.98;;;;;;;;;;5031211;28;20491;-65
2022/06/04 06:53:54;;;;;;;14.52;12.40;;;;;;;;;;5037055;28;20067;-65
2022/06/04 06:56:29;;;;;;;14.48;12.30;;;;;;;;;;5051261;28;20100;-65
2022/06/04 06:58:56;;;;;;;13.80;12.00;;;;;;;;;;5051219;28;20507;-65
2022/06/04 07:01:24;;;;;;;14.10;12.60;;;;;;;;;;5051021;28;20511;-65
2022/06/04 07:03:51;;;;;;;14.10;12.60;;;;;;;;;;5050699;28;20088;-66
2022/06/04 07:06:31;;;;;;;15.70;12.43;;;;;;;;;;5031693;28;20107;-65
2022/06/04 07:08:58;;;;;;;13.15;11.85;;;;;;;;;;5031059;28;20057;-66
2022/06/04 07:11:25;;;;;;;15.70;11.60;;;;;;;;;;5049552;28;20048;-65
2022/06/04 07:13:52;;;;;;;14.13;10.57;;;;;;;;;;5051278;28;20041;-66
2022/06/04 07:16:19;;;;;;;14.07;11.30;;;;;;;;;;5030799;28;20099;-65
2022/06/04 07:18:46;;;;;;;13.48;10.90;;;;;;;;;;5039693;28;20061;-64
2022/06/04 07:21:13;;;;;;;15.30;12.05;;;;;;;;;;5038120;28;20049;-63
2022/06/04 07:23:40;;;;;;;14.32;11.10;;;;;;;;;;5041576;28;20049;-67
2022/06/04 07:26:07;;;;;;;13.63;12.15;;;;;;;;;;5037932;28;20060;-64
2022/06/04 07:28:36;;;;;;;15.27;12.02;;;;;;;;;;5037013;28;20042;-71
2022/06/04 07:31:07;;;;;;;17.58;12.50;;;;;;;;;;5030997;28;20053;-71
2022/06/04 07:33:34;;;;;;;12.90;11.55;;;;;;;;;;5037349;28;20064;-65
2022/06/04 07:36:01;;;;;;;15.98;13.05;;;;;;;;;;5042690;28;20451;-64
2022/06/04 07:38:28;;;;;;;14.60;12.77;;;;;;;;;;5023033;28;20512;-68
2022/06/04 07:40:55;;;;;;;17.00;12.20;;;;;;;;;;5019222;28;20539;-68
2022/06/04 07:43:21;;;;;;;15.98;11.38;;;;;;;;;;5018124;28;20053;-68
2022/06/04 07:45:48;;;;;;;12.95;11.73;;;;;;;;;;5019110;28;20107;-68
2022/06/04 07:48:15;;;;;;;13.57;11.95;;;;;;;;;;5022285;28;20053;-68
2022/06/04 07:50:42;;;;;;;11.70;10.60;;;;;;;;;;5019371;28;20045;-66
2022/06/04 07:53:08;;;;;;;12.25;11.05;;;;;;;;;;5018489;28;20480;-66
2022/06/04 07:55:39;;;;;;;12.07;10.85;;;;;;;;;;5018750;28;20046;-65
2022/06/04 07:58:05;;;;;;;12.40;11.20;;;;;;;;;;5018506;28;20065;-64
2022/06/04 08:00:37;;;;;;;12.85;11.65;;;;;;;;;;5017800;28;20050;-66
2022/06/04 08:03:05;;;;;;;13.27;11.98;;;;;;;;;;5024832;28;20068;-67
2022/06/04 08:05:32;;;;;;;11.43;10.35;;;;;;;;;;5020779;28;20104;-65
2022/06/04 08:07:58;;;;;;;12.23;10.80;;;;;;;;;;5019297;28;20508;-68
2022/06/04 08:10:25;;;;;;;13.20;11.82;;;;;;;;;;5021122;28;20096;-64
2022/06/04 08:12:53;;;;;;;11.93;10.68;;;;;;;;;;5022433;28;20045;-64
2022/06/04 08:15:21;;;;;;;11.95;10.82;;;;;;;;;;5018046;28;20049;-71
2022/06/04 08:17:47;;;;;;;12.48;11.38;;;;;;;;;;5021171;28;20106;-72
2022/06/04 08:20:14;;;;;;;12.63;11.40;;;;;;;;;;5020636;28;20101;-70
2022/06/04 08:22:41;;;;;;;12.90;11.60;;;;;;;;;;5019439;28;20455;-73
2022/06/04 08:25:08;;;;;;;11.25;10.15;;;;;;;;;;5019053;28;20050;-73
2022/06/04 08:27:35;;;;;;;12.52;11.43;;;;;;;;;;5020704;28;20054;-69
2022/06/04 08:30:03;;;;;;;11.10;10.05;;;;;;;;;;5018258;28;20045;-72
2022/06/04 08:32:29;;;;;;;11.20;10.20;;;;;;;;;;5017089;28;20049;-72
2022/06/04 08:34:56;;;;;;;9.82;9.02;;;;;;;;;;5017155;28;20571;-75
2022/06/04 08:37:25;;;;;;;14.15;10.20;;;;;;;;;;5020577;28;20058;-73
2022/06/04 08:39:52;;;;;;;9.40;8.60;;;;;;;;;;5018852;28;20500;-71
2022/06/04 08:42:51;;;;;;;10.90;9.73;;;;;;;;;;5018684;28;20069;-79
2022/06/04 08:45:21;;;;;;;10.48;9.43;;;;;;;;;;5020606;28;20441;-74
2022/06/04 08:47:48;;;;;;;11.77;9.63;;;;;;;;;;5016054;28;20049;-68
2022/06/04 08:50:21;;;;;;;10.20;9.07;;;;;;;;;;5015591;28;20049;-70
2022/06/04 08:52:50;;;;;;;11.18;10.27;;;;;;;;;;5018276;28;20041;-70
2022/06/04 08:58:13;;;;;;;10.32;9.30;;;;;;;;;;5025424;28;20049;-69
2022/06/04 09:00:52;;;;;;;11.70;10.50;;;;;;;;;;5024428;28;20049;-67
2022/06/04 09:03:40;;;;;;;10.25;9.25;;;;;;;;;;5023361;28;20409;-69
2022/06/04 09:06:19;;;;;;;9.50;8.70;;;;;;;;;;5028906;28;20406;-68
2022/06/04 09:08:55;;;;;;;10.82;9.73;;;;;;;;;;5027425;28;20045;-68
2022/06/04 09:11:26;;;;;;;9.52;8.52;;;;;;;;;;5024244;28;20056;-66
2022/06/04 09:14:14;;;;;;;10.18;8.57;;;;;;;;;;5012023;28;20095;-67
2022/06/04 09:16:42;;;;;;;9.35;8.30;;;;;;;;;;5026463;28;20049;-67
2022/06/04 09:19:17;;;;;;;10.63;9.73;;;;;;;;;;5008683;28;20050;-67
2022/06/04 09:21:44;;;;;;;11.52;9.57;;;;;;;;;;5025762;28;20506;-67
2022/06/04 09:24:11;;;;;;;9.43;8.50;;;;;;;;;;5027858;28;20049;-68
2022/06/04 09:27:04;;;;;;;10.02;9.07;;;;;;;;;;5028049;28;20049;-68
2022/06/04 09:29:51;;;;;;;9.35;8.55;;;;;;;;;;5025750;28;20042;-68
2022/06/04 09:32:59;;;;;;;9.73;8.93;;;;;;;;;;5023802;28;20057;-67
2022/06/04 09:35:29;;;;;;;9.55;8.75;;;;;;;;;;5028511;28;20192;-67
2022/06/04 09:37:56;;;;;;;10.25;9.32;;;;;;;;;;5031219;28;20049;-68
2022/06/04 09:40:26;;;;;;;10.23;9.23;;;;;;;;;;5026424;28;20046;-68
2022/06/04 09:43:07;;;;;;;10.18;9.25;;;;;;;;;;5026824;28;20087;-68
2022/06/04 09:45:57;;;;;;;10.45;9.40;;;;;;;;;;5024874;28;20107;-68
2022/06/04 09:48:32;;;;;;;9.95;8.95;;;;;;;;;;5027564;28;20568;-67
2022/06/04 09:51:01;;;;;;;10.32;9.32;;;;;;;;;;5029690;28;20424;-67
2022/06/04 09:53:33;;;;;;;10.77;9.70;;;;;;;;;;5025653;28;20041;-68
2022/06/04 09:56:10;;;;;;;10.65;9.70;;;;;;;;;;5022354;28;20398;-68
2022/06/04 09:58:40;;;;;;;11.35;10.32;;;;;;;;;;5025364;28;20061;-68
2022/06/04 10:01:21;;;;;;;13.13;11.93;;;;;;;;;;5023255;28;20448;-67
2022/06/04 10:04:14;;;;;;;13.02;11.68;;;;;;;;;;5026171;28;20046;-63
2022/06/04 10:06:41;;;;;;;13.43;12.02;;;;;;;;;;5021728;28;20558;-64
2022/06/04 10:12:05;;;;;;;15.85;14.45;;;;;;;;;;5023858;23;20042;-65
2022/06/04 10:14:37;;;;;;;17.88;16.15;;;;;;;;;;4992226;28;20045;-65
2022/06/04 10:17:17;;;;;;;18.25;16.38;;;;;;;;;;4992457;28;20054;-66
2022/06/04 10:19:52;;;;;;;16.92;15.38;;;;;;;;;;4993272;28;20047;-66
2022/06/04 10:22:18;;;;;;;18.45;16.73;;;;;;;;;;4982943;28;20054;-66
2022/06/04 10:24:51;;;;;;;17.95;16.25;;;;;;;;;;4980462;28;20066;-65
2022/06/04 10:27:22;;;;;;;18.63;16.77;;;;;;;;;;4981158;28;20445;-66
2022/06/04 10:30:02;;;;;;;18.63;16.55;;;;;;;;;;4981309;28;20061;-66
2022/06/04 10:32:43;;;;;;;18.00;16.13;;;;;;;;;;4979049;28;20609;-65
2022/06/04 10:35:25;;;;;;;17.27;15.68;;;;;;;;;;4995631;28;20533;-65
2022/06/04 10:38:20;;;;;;;19.02;17.15;;;;;;;;;;4981878;28;20505;-65
2022/06/04 10:41:02;;;;;;;19.52;17.67;;;;;;;;;;4995824;28;20461;-66
2022/06/04 10:44:07;;;;;;;19.80;17.73;;;;;;;;;;4983586;28;20466;-66
2022/06/04 10:47:12;;;;;;;19.90;18.00;;;;;;;;;;4982174;28;20053;-66
2022/06/04 10:49:48;;;;;;;20.73;18.65;;;;;;;;;;4985838;28;20428;-66
2022/06/04 10:52:28;;;;;;;22.23;19.02;;;;;;;;;;4980732;28;20626;-66
2022/06/04 10:55:21;;;;;;;21.23;19.02;;;;;;;;;;4992761;28;20472;-66
2022/06/04 10:58:26;;;;;;;20.63;18.50;;;;;;;;;;4982366;28;20081;-65
2022/06/04 11:01:06;;;;;;;20.10;18.17;;;;;;;;;;4979265;28;20043;-65
2022/06/04 11:04:03;;;;;;;20.63;18.73;;;;;;;;;;4977132;28;20063;-66
2022/06/04 11:06:32;;;;;;;20.67;18.77;;;;;;;;;;4993017;28;20074;-65
2022/06/04 11:09:02;;;;;;;19.35;17.55;;;;;;;;;;4978011;28;20195;-65
2022/06/04 11:12:10;;;;;;;20.63;18.58;;;;;;;;;;4979006;28;20503;-65
2022/06/04 11:14:51;;;;;;;19.95;18.08;;;;;;;;;;4991558;28;20050;-64
2022/06/04 11:17:27;;;;;;;18.25;16.58;;;;;;;;;;4980637;28;20051;-65
2022/06/04 11:20:02;;;;;;;18.52;16.73;;;;;;;;;;4961268;28;20047;-65
2022/06/04 11:22:36;;;;;;;19.23;17.33;;;;;;;;;;4978656;28;20055;-65
2022/06/04 11:25:24;;;;;;;19.05;17.17;;;;;;;;;;4965257;28;20113;-65
2022/06/04 11:28:06;;;;;;;16.23;14.52;;;;;;;;;;4983402;28;20426;-64
2022/06/04 11:31:14;;;;;;;15.95;14.45;;;;;;;;;;4976281;28;20058;-64
2022/06/04 11:33:54;;;;;;;15.30;13.90;;;;;;;;;;4983191;28;20052;-66
2022/06/04 11:36:29;;;;;;;13.98;12.68;;;;;;;;;;4975759;28;20062;-66
2022/06/04 11:39:05;;;;;;;14.43;13.02;;;;;;;;;;4994070;28;20050;-65
2022/06/04 11:41:46;;;;;;;14.82;13.43;;;;;;;;;;4978138;28;20082;-65
2022/06/04 11:44:28;;;;;;;14.52;13.23;;;;;;;;;;4981792;28;20050;-64
2022/06/04 11:47:16;;;;;;;14.70;13.30;;;;;;;;;;4977388;28;20047;-65
2022/06/04 11:50:04;;;;;;;15.82;13.82;;;;;;;;;;4977489;28;20090;-65
2022/06/04 11:52:34;;;;;;;14.70;13.35;;;;;;;;;;4979258;28;20054;-65
2022/06/04 11:55:43;;;;;;;15.63;14.23;;;;;;;;;;4977576;28;20052;-65
2022/06/04 11:58:34;;;;;;;12.82;11.65;;;;;;;;;;4985859;28;20050;-64
2022/06/04 12:01:04;;;;;;;15.18;13.57;;;;;;;;;;4993404;28;20121;-65
2022/06/04 12:03:38;;;;;;;13.23;12.13;;;;;;;;;;4977781;28;20117;-64
2022/06/04 12:06:25;;;;;;;12.45;11.20;;;;;;;;;;4993732;28;20129;-66
2022/06/04 12:09:02;;;;;;;13.07;11.77;;;;;;;;;;4983543;28;20050;-66
2022/06/04 12:11:53;;;;;;;11.25;10.15;;;;;;;;;;4973434;28;20104;-66
2022/06/04 12:14:23;;;;;;;11.73;10.73;;;;;;;;;;4990906;28;20090;-65
2022/06/04 12:17:07;;;;;;;11.57;10.52;;;;;;;;;;4990962;28;20053;-66
2022/06/04 12:25:36;;;;;;;10.68;9.77;;;;;;;;;;4989355;28;20058;-64
2022/06/04 12:28:35;;;;;;;11.43;10.43;;;;;;;;;;4990817;28;20058;-65
2022/06/04 12:31:02;;;;;;;11.55;10.35;;;;;;;;;;4984676;28;20046;-65
2022/06/04 12:34:01;;;;;;;9.88;8.98;;;;;;;;;;4982570;28;20046;-65
2022/06/04 12:36:36;;;;;;;8.60;7.90;;;;;;;;;;4966841;28;20062;-65
2022/06/04 12:39:17;;;;;;;8.75;8.02;;;;;;;;;;4971306;28;20061;-65
2022/06/04 12:41:46;;;;;;;10.02;9.13;;;;;;;;;;4969799;28;20047;-66
2022/06/04 12:44:28;;;;;;;8.82;7.88;;;;;;;;;;4969711;28;20690;-66
2022/06/04 12:46:56;;;;;;;8.13;7.40;;;;;;;;;;4979349;28;20105;-64
2022/06/04 12:49:32;;;;;;;7.78;7.07;;;;;;;;;;4963672;28;20054;-65
2022/06/04 12:52:05;;;;;;;10.23;9.10;;;;;;;;;;4967970;28;20055;-65
2022/06/04 12:54:47;;;;;;;8.70;7.72;;;;;;;;;;4971439;28;20090;-64
2022/06/04 12:57:21;;;;;;;10.02;9.02;;;;;;;;;;4970608;28;20058;-65
2022/06/04 12:59:51;;;;;;;9.98;9.10;;;;;;;;;;4969436;28;20485;-65
2022/06/04 13:02:35;;;;;;;7.43;6.60;;;;;;;;;;4974520;28;20138;-66
2022/06/04 13:05:13;;;;;;;8.43;7.13;;;;;;;;;;4983295;28;20047;-65
2022/06/04 13:07:51;;;;;;;11.25;6.07;;;;;;;;;;4981211;28;20093;-66
2022/06/04 13:10:44;;;;;;;8.88;8.07;;;;;;;;;;4962093;28;20106;-65
2022/06/04 13:13:38;;;;;;;9.38;6.85;;;;;;;;;;4977785;28;20042;-67
2022/06/04 13:16:24;;;;;;;7.95;6.43;;;;;;;;;;4986521;28;20116;-66
2022/06/04 13:19:21;;;;;;;6.68;5.78;;;;;;;;;;4958554;28;20133;-66
2022/06/04 13:21:48;;;;;;;8.07;7.30;;;;;;;;;;4990305;28;20058;-65
2022/06/04 13:24:19;;;;;;;8.75;7.90;;;;;;;;;;4991986;28;20101;-66
2022/06/04 13:27:08;;;;;;;6.47;5.88;;;;;;;;;;4990883;28;20054;-66
2022/06/04 13:29:36;;;;;;;6.75;6.15;;;;;;;;;;4976134;28;20501;-65
2022/06/04 13:32:09;;;;;;;5.95;5.35;;;;;;;;;;4955164;28;20565;-66
2022/06/04 13:34:36;;;;;;;7.13;5.80;;;;;;;;;;4987446;28;20055;-66
2022/06/04 13:37:04;;;;;;;5.93;5.35;;;;;;;;;;4974271;28;20055;-66
2022/06/04 13:39:32;;;;;;;8.32;5.32;;;;;;;;;;4958992;28;20093;-67
2022/06/04 13:42:01;;;;;;;6.40;5.80;;;;;;;;;;4958828;28;20054;-66
2022/06/04 13:44:55;;;;;;;6.05;4.88;;;;;;;;;;4958910;28;20058;-66
2022/06/04 13:47:24;;;;;;;8.43;6.07;;;;;;;;;;4976001;28;20109;-66
2022/06/04 13:50:03;;;;;;;6.00;5.60;;;;;;;;;;4974762;28;20465;-66
2022/06/04 13:52:30;;;;;;;5.00;4.60;;;;;;;;;;4974398;28;20054;-66
2022/06/04 13:54:59;;;;;;;5.78;4.95;;;;;;;;;;4975957;28;20108;-66
2022/06/04 13:57:35;;;;;;;5.82;5.30;;;;;;;;;;4958904;28;20101;-66
2022/06/04 14:00:19;;;;;;;5.45;5.00;;;;;;;;;;4975427;28;20125;-66
2022/06/04 14:02:48;;;;;;;6.38;5.78;;;;;;;;;;4988090;28;20520;-67
2022/06/04 14:08:09;;;;;;;7.53;6.10;;;;;;;;;;4980440;28;20046;-66
2022/06/04 14:10:36;;;;;;;7.18;5.80;;;;;;;;;;4993616;28;20046;-67
2022/06/04 14:13:44;;;;;;;4.70;4.30;;;;;;;;;;4993431;28;20046;-65
2022/06/04 14:16:32;;;;;;;64.57;38.60;;;;;;;;;;4985284;28;20046;-66
2022/06/04 14:19:23;;;;;;;144.02;80.22;;;;;;;;;;4975279;28;20102;-65
2022/06/04 14:22:06;;;;;;;6.32;4.43;;;;;;;;;;4983757;28;20057;-65
2022/06/04 14:24:43;;;;;;;4.38;4.07;;;;;;;;;;4975142;28;20054;-65
2022/06/04 14:27:44;;;;;;;5.72;3.85;;;;;;;;;;4985498;28;20062;-64
2022/06/04 14:30:13;;;;;;;3.92;3.63;;;;;;;;;;4985119;28;20512;-66
2022/06/04 14:32:41;;;;;;;3.53;3.30;;;;;;;;;;4987694;28;20109;-65
2022/06/04 14:35:14;;;;;;;4.18;3.78;;;;;;;;;;4990651;28;20050;-64
2022/06/04 14:37:43;;;;;;;3.60;2.90;;;;;;;;;;4988274;28;20051;-66
2022/06/04 14:40:13;;;;;;;3.05;2.83;;;;;;;;;;4985504;28;20105;-67
2022/06/04 14:43:28;;;;;;;5.07;3.28;;;;;;;;;;4973416;28;20058;-66
2022/06/04 14:46:14;;;;;;;5.47;4.15;;;;;;;;;;4980803;28;20249;-66
2022/06/04 14:49:05;;;;;;;5.97;4.72;;;;;;;;;;4991758;28;20497;-65
2022/06/04 14:51:34;;;;;;;3.63;3.30;;;;;;;;;;4974556;28;20073;-67
2022/06/04 14:54:05;;;;;;;5.20;3.10;;;;;;;;;;4979688;28;20105;-71
2022/06/04 14:56:52;;;;;;;4.13;3.83;;;;;;;;;;4966650;28;20065;-66
2022/06/04 14:59:48;;;;;;;4.70;4.30;;;;;;;;;;4970703;28;20054;-65
2022/06/04 15:02:31;;;;;;;4.85;4.40;;;;;;;;;;4978370;28;20046;-69
2022/06/04 15:05:31;;;;;;;5.10;4.60;;;;;;;;;;4996392;28;20058;-66
2022/06/04 15:08:27;;;;;;;5.97;4.05;;;;;;;;;;4999672;28;20043;-69
2022/06/04 15:11:05;;;;;;;5.90;5.30;;;;;;;;;;4984093;28;20486;-69
2022/06/04 15:14:14;;;;;;;6.75;6.18;;;;;;;;;;4997645;28;20053;-68
2022/06/04 15:16:50;;;;;;;6.72;6.07;;;;;;;;;;4980131;28;20043;-68
2022/06/04 15:19:33;;;;;;;7.65;5.95;;;;;;;;;;4973596;28;20137;-69
2022/06/04 15:22:06;;;;;;;5.53;5.00;;;;;;;;;;4960122;28;20055;-69
2022/06/04 15:24:35;;;;;;;5.63;5.10;;;;;;;;;;4993616;28;20465;-69
2022/06/04 15:27:15;;;;;;;6.45;5.50;;;;;;;;;;4984873;28;20054;-65
2022/06/04 15:35:51;;;;;;;5.67;4.67;;;;;;;;;;4973785;28;20502;-64
2022/06/04 15:38:27;;;;;;;6.00;5.50;;;;;;;;;;4970691;28;20293;-65